Time;durP1;ratioP1;P1;durP2;ratioP2;P2;SDS_P1;SDS_P2;PMS_P1;PMS_P2;Temp;Humidity;BMP_temperature;BMP_pressure;BME280_temperature;BME280_humidity;BME280_pressure;Samples;Min_cycle;Max_cycle;Signal;HPM_P1;HPM_P2
2023/09/19 00:00:28;;;;;;;12.73;2.33;;;18.00;99.90;;;;;;4184220;28;20059;-66
2023/09/19 00:02:29;;;;;;;8.10;2.15;;;17.90;99.90;;;;;;4181489;28;20386;-67
2023/09/19 00:04:32;;;;;;;8.20;2.20;;;18.00;99.90;;;;;;4178555;28;20508;-66
2023/09/19 00:06:33;;;;;;;7.20;2.17;;;17.90;99.90;;;;;;4181551;28;20028;-66
2023/09/19 00:08:36;;;;;;;8.77;2.67;;;17.90;99.90;;;;;;4185224;28;20037;-66
2023/09/19 00:10:39;;;;;;;5.65;1.92;;;17.80;99.90;;;;;;4179582;28;20044;-67
2023/09/19 00:12:43;;;;;;;12.02;2.53;;;17.90;99.90;;;;;;4181663;28;20036;-67
2023/09/19 00:14:44;;;;;;;6.75;2.13;;;17.80;99.90;;;;;;4184334;28;20025;-66
2023/09/19 00:16:46;;;;;;;7.47;2.10;;;17.80;99.90;;;;;;4191731;28;20036;-66
2023/09/19 00:18:48;;;;;;;8.45;2.65;;;17.80;99.90;;;;;;4183500;28;20055;-66
2023/09/19 00:20:51;;;;;;;;;;;17.80;99.90;;;;;;4184504;28;20053;-65
2023/09/19 00:22:53;;;;;;;7.20;1.98;;;17.80;99.90;;;;;;4179726;28;19963;-65
2023/09/19 00:24:54;;;;;;;11.88;2.70;;;17.70;99.90;;;;;;4187500;28;20044;-66
2023/09/19 00:26:55;;;;;;;12.32;2.65;;;17.70;99.90;;;;;;4177000;28;20120;-65
2023/09/19 00:28:57;;;;;;;7.85;2.03;;;17.70;99.90;;;;;;4181337;28;20490;-66
2023/09/19 00:31:01;;;;;;;10.05;3.00;;;17.70;99.90;;;;;;4181300;28;20539;-66
2023/09/19 00:33:05;;;;;;;9.45;2.40;;;17.70;99.90;;;;;;4206488;28;20028;-65
2023/09/19 00:35:09;;;;;;;12.57;2.25;;;17.60;99.90;;;;;;4182352;28;20078;-66
2023/09/19 00:37:11;;;;;;;8.98;2.67;;;17.60;99.90;;;;;;4175422;28;20041;-66
2023/09/19 00:39:11;;;;;;;10.48;2.47;;;17.60;99.90;;;;;;4182575;28;20036;-65
2023/09/19 00:41:12;;;;;;;9.90;2.72;;;17.60;99.90;;;;;;4176437;28;20571;-66
2023/09/19 00:43:13;;;;;;;5.95;1.70;;;17.60;99.90;;;;;;4181156;28;20397;-65
2023/09/19 00:45:16;;;;;;;8.93;2.15;;;17.60;99.90;;;;;;4189895;28;20041;-66
2023/09/19 00:47:17;;;;;;;;;;;17.60;99.90;;;;;;4181371;28;20123;-66
2023/09/19 00:49:20;;;;;;;5.93;2.08;;;17.60;99.90;;;;;;4187903;28;19931;-67
2023/09/19 00:51:22;;;;;;;6.55;1.85;;;17.60;99.90;;;;;;4177137;28;20029;-66
2023/09/19 00:53:25;;;;;;;9.13;2.53;;;17.50;99.90;;;;;;4176342;28;20520;-66
2023/09/19 00:55:26;;;;;;;11.75;2.65;;;17.50;99.90;;;;;;4170870;28;20037;-66
2023/09/19 00:57:26;;;;;;;9.52;2.95;;;17.50;99.90;;;;;;4193831;28;20046;-66
2023/09/19 00:59:28;;;;;;;8.55;2.22;;;17.50;99.90;;;;;;4184287;28;20032;-66
2023/09/19 01:01:29;;;;;;;8.85;2.45;;;17.50;99.90;;;;;;4185788;28;20033;-66
2023/09/19 01:03:29;;;;;;;6.68;2.17;;;17.40;99.90;;;;;;4187385;28;21750;-66
2023/09/19 01:05:30;;;;;;;9.07;2.75;;;17.40;99.90;;;;;;4176018;28;21034;-66
2023/09/19 01:07:33;;;;;;;10.40;2.42;;;17.30;99.90;;;;;;4183079;28;20090;-65
2023/09/19 01:09:35;;;;;;;9.25;2.53;;;17.30;99.90;;;;;;4185547;28;20037;-66
2023/09/19 01:11:42;;;;;;;7.47;2.35;;;17.40;99.90;;;;;;4179082;28;20534;-66
2023/09/19 01:13:57;;;;;;;6.18;2.25;;;17.30;99.90;;;;;;4179813;28;20048;-66
2023/09/19 01:16:17;;;;;;;11.50;2.50;;;17.30;99.90;;;;;;4174892;28;20084;-66
2023/09/19 01:18:23;;;;;;;6.93;2.20;;;17.30;99.90;;;;;;4171252;28;20045;-66
2023/09/19 01:20:35;;;;;;;11.20;2.53;;;17.20;99.90;;;;;;4169389;28;20547;-66
2023/09/19 01:22:52;;;;;;;8.27;2.80;;;17.20;99.90;;;;;;4169487;28;20461;-66
2023/09/19 01:25:36;;;;;;;6.28;2.00;;;17.30;99.90;;;;;;4174693;28;20032;-66
2023/09/19 01:27:57;;;;;;;8.70;2.20;;;17.20;99.90;;;;;;4181408;28;20040;-69
2023/09/19 01:30:27;;;;;;;5.30;2.03;;;17.20;99.90;;;;;;4175930;28;20032;-65
2023/09/19 01:32:29;;;;;;;7.82;2.40;;;17.20;99.90;;;;;;4172722;28;20039;-66
2023/09/19 01:34:53;;;;;;;6.78;1.80;;;17.10;99.90;;;;;;4176386;28;20036;-65
2023/09/19 01:36:54;;;;;;;18.00;2.78;;;17.10;99.90;;;;;;4174171;28;20067;-66
2023/09/19 01:38:57;;;;;;;12.90;2.47;;;17.10;99.90;;;;;;4184712;28;20486;-67
2023/09/19 01:41:17;;;;;;;8.85;2.70;;;17.10;99.90;;;;;;4178256;28;20037;-66
2023/09/19 01:43:40;;;;;;;7.45;2.28;;;17.10;99.90;;;;;;4185672;28;20037;-65
2023/09/19 01:45:50;;;;;;;6.82;2.35;;;17.10;99.90;;;;;;4178217;28;20040;-66
2023/09/19 01:47:56;;;;;;;8.82;2.25;;;17.00;99.90;;;;;;4180096;28;20052;-67
2023/09/19 01:50:15;;;;;;;7.30;2.00;;;17.10;99.90;;;;;;4183353;28;20024;-66
2023/09/19 01:52:20;;;;;;;11.82;2.60;;;17.10;99.90;;;;;;4179207;28;20029;-65
2023/09/19 01:54:30;;;;;;;7.38;2.30;;;17.00;99.90;;;;;;4186905;28;20049;-65
2023/09/19 01:56:42;;;;;;;11.30;2.55;;;17.00;99.90;;;;;;4174983;28;20033;-65
2023/09/19 01:58:48;;;;;;;5.90;1.87;;;17.00;99.90;;;;;;4183083;28;20044;-68
2023/09/19 02:00:51;;;;;;;6.45;2.17;;;17.00;99.90;;;;;;4183286;28;20025;-68
2023/09/19 02:02:55;;;;;;;8.88;2.38;;;17.00;99.90;;;;;;4178276;28;20509;-68
2023/09/19 02:04:56;;;;;;;11.98;2.55;;;16.90;99.90;;;;;;4175935;28;20445;-68
2023/09/19 02:06:57;;;;;;;7.43;2.50;;;17.00;99.90;;;;;;4186383;28;20024;-68
2023/09/19 02:08:57;;;;;;;11.48;2.70;;;17.00;99.90;;;;;;4176920;28;20440;-68
2023/09/19 02:10:59;;;;;;;5.65;2.33;;;16.90;99.90;;;;;;4180495;28;20064;-68
2023/09/19 02:13:00;;;;;;;10.57;2.60;;;16.90;99.90;;;;;;4188188;28;20051;-68
2023/09/19 02:15:01;;;;;;;9.65;2.38;;;16.90;99.90;;;;;;4188263;28;20033;-69
2023/09/19 02:17:06;;;;;;;14.02;2.92;;;16.90;99.90;;;;;;4191009;28;20071;-68
2023/09/19 02:19:07;;;;;;;9.18;2.60;;;16.90;99.90;;;;;;4185646;28;20473;-68
2023/09/19 02:21:09;;;;;;;17.10;3.67;;;16.80;99.90;;;;;;4178137;28;20110;-68
2023/09/19 02:23:11;;;;;;;8.40;2.33;;;16.80;99.90;;;;;;4185352;28;20037;-68
2023/09/19 02:25:13;;;;;;;12.43;2.78;;;16.80;99.90;;;;;;4178220;28;20051;-67
2023/09/19 02:27:16;;;;;;;6.60;2.05;;;16.70;99.90;;;;;;4190805;28;20052;-68
2023/09/19 02:29:16;;;;;;;8.90;2.20;;;16.70;99.90;;;;;;4186087;28;20063;-68
2023/09/19 02:31:17;;;;;;;8.52;2.92;;;16.80;99.90;;;;;;4165846;28;20025;-68
2023/09/19 02:33:17;;;;;;;6.78;2.28;;;16.70;99.90;;;;;;4190433;28;20041;-68
2023/09/19 02:35:19;;;;;;;12.00;2.40;;;16.70;99.90;;;;;;4186245;28;20102;-68
2023/09/19 02:37:20;;;;;;;8.60;2.37;;;16.70;99.90;;;;;;4182936;28;20112;-68
2023/09/19 02:39:20;;;;;;;9.02;1.88;;;16.70;99.90;;;;;;4179211;28;20041;-69
2023/09/19 02:41:21;;;;;;;7.00;2.05;;;16.70;99.90;;;;;;4188767;28;20102;-68
2023/09/19 02:43:22;;;;;;;7.10;2.03;;;16.70;99.90;;;;;;4191698;28;20033;-68
2023/09/19 02:45:23;;;;;;;5.20;1.90;;;16.60;99.90;;;;;;4183297;28;20143;-68
2023/09/19 02:47:24;;;;;;;9.77;2.58;;;16.70;99.90;;;;;;4191094;28;20499;-68
2023/09/19 02:49:25;;;;;;;7.05;2.45;;;16.60;99.90;;;;;;4188921;28;20358;-68
2023/09/19 02:51:26;;;;;;;7.28;2.10;;;16.60;99.90;;;;;;4179407;28;20499;-68
2023/09/19 02:53:27;;;;;;;7.93;2.08;;;16.70;99.90;;;;;;4193176;28;20041;-68
2023/09/19 02:55:28;;;;;;;8.45;2.38;;;16.70;99.90;;;;;;4185136;28;20033;-68
2023/09/19 02:57:28;;;;;;;10.27;2.40;;;16.70;99.90;;;;;;4180182;28;20098;-67
2023/09/19 02:59:31;;;;;;;5.32;1.90;;;16.70;99.90;;;;;;4184608;28;20079;-68
2023/09/19 03:01:32;;;;;;;;;;;16.70;99.90;;;;;;4181761;28;20033;-65
2023/09/19 03:03:33;;;;;;;5.97;1.90;;;16.70;99.90;;;;;;4177513;28;19909;-66
2023/09/19 03:05:34;;;;;;;9.40;2.35;;;16.70;99.90;;;;;;4193519;28;20052;-65
2023/09/19 03:07:37;;;;;;;10.80;2.53;;;16.70;99.90;;;;;;4178875;28;20123;-65
2023/09/19 03:09:37;;;;;;;6.90;2.17;;;16.70;99.90;;;;;;4178886;28;20029;-65
2023/09/19 03:11:40;;;;;;;7.38;2.00;;;16.70;99.90;;;;;;4179034;28;20383;-65
2023/09/19 03:13:42;;;;;;;9.23;2.47;;;16.70;99.90;;;;;;4178752;28;20112;-68
2023/09/19 03:15:50;;;;;;;8.07;2.60;;;16.70;99.90;;;;;;4185422;28;20075;-66
2023/09/19 03:17:53;;;;;;;6.47;2.03;;;16.60;99.90;;;;;;4182759;28;20106;-67
2023/09/19 03:19:53;;;;;;;10.43;2.42;;;16.60;99.90;;;;;;4178983;28;20041;-67
2023/09/19 03:21:54;;;;;;;4.05;1.58;;;16.60;99.90;;;;;;4180139;28;20047;-65
2023/09/19 03:23:55;;;;;;;5.63;2.35;;;16.60;99.90;;;;;;4178403;28;20124;-65
2023/09/19 03:25:56;;;;;;;9.65;1.95;;;16.60;99.90;;;;;;4187460;28;20531;-65
2023/09/19 03:28:00;;;;;;;7.60;2.50;;;16.50;99.90;;;;;;4194241;28;20033;-66
2023/09/19 03:30:05;;;;;;;5.35;1.98;;;16.60;99.90;;;;;;4181910;28;20580;-68
2023/09/19 03:32:06;;;;;;;7.63;2.00;;;16.50;99.90;;;;;;4193287;28;20051;-65
2023/09/19 03:34:06;;;;;;;5.55;2.05;;;16.60;99.90;;;;;;4193921;28;20498;-65
2023/09/19 03:36:07;;;;;;;7.18;2.17;;;16.60;99.90;;;;;;4181634;28;20039;-67
2023/09/19 03:38:08;;;;;;;5.55;1.77;;;16.60;99.90;;;;;;4178511;28;20029;-66
2023/09/19 03:40:10;;;;;;;5.40;1.77;;;16.60;99.90;;;;;;4186519;28;20021;-66
2023/09/19 03:42:11;;;;;;;8.02;2.05;;;16.70;99.90;;;;;;4191089;28;20065;-66
2023/09/19 03:44:11;;;;;;;8.88;2.15;;;16.60;99.90;;;;;;4178684;28;20068;-67
2023/09/19 03:46:14;;;;;;;9.52;2.38;;;16.70;99.90;;;;;;4187036;28;20606;-66
2023/09/19 03:48:15;;;;;;;7.07;1.90;;;16.60;99.90;;;;;;4182702;28;20079;-66
2023/09/19 03:50:17;;;;;;;8.27;2.22;;;16.60;99.90;;;;;;4178916;28;20025;-65
2023/09/19 03:52:18;;;;;;;4.63;1.87;;;16.70;99.90;;;;;;4184074;28;20518;-66
2023/09/19 03:54:19;;;;;;;6.30;2.05;;;16.70;99.90;;;;;;4184569;28;20040;-65
2023/09/19 03:56:19;;;;;;;7.13;1.92;;;16.70;99.90;;;;;;4182602;28;20027;-66
2023/09/19 03:58:20;;;;;;;6.93;2.10;;;16.70;99.90;;;;;;4192222;28;20568;-66
2023/09/19 04:00:23;;;;;;;8.30;2.30;;;16.70;99.90;;;;;;4185728;28;20036;-66
2023/09/19 04:02:24;;;;;;;7.95;2.08;;;16.70;99.90;;;;;;4177722;28;20053;-65
2023/09/19 04:04:25;;;;;;;8.93;2.13;;;16.70;99.90;;;;;;4183195;28;20052;-66
2023/09/19 04:06:27;;;;;;;8.32;2.53;;;16.70;99.90;;;;;;4184443;28;20041;-66
2023/09/19 04:08:29;;;;;;;6.18;2.10;;;16.60;99.90;;;;;;4184293;28;20115;-66
2023/09/19 04:10:30;;;;;;;10.63;2.35;;;16.60;99.90;;;;;;4179911;28;20414;-66
2023/09/19 04:12:31;;;;;;;4.80;2.10;;;16.50;99.90;;;;;;4178604;28;20041;-66
2023/09/19 04:14:32;;;;;;;6.80;2.45;;;16.50;99.90;;;;;;4173586;28;20033;-67
2023/09/19 04:16:32;;;;;;;5.75;2.10;;;16.40;99.90;;;;;;4184760;28;20035;-66
2023/09/19 04:18:37;;;;;;;8.90;2.13;;;16.50;99.90;;;;;;4190456;28;20078;-66
2023/09/19 04:20:37;;;;;;;9.40;2.38;;;16.50;99.90;;;;;;4183280;28;20036;-70
2023/09/19 04:22:39;;;;;;;9.63;2.40;;;16.40;99.90;;;;;;4184471;28;20486;-71
2023/09/19 04:24:40;;;;;;;11.93;2.50;;;16.40;99.90;;;;;;4183610;28;20055;-70
2023/09/19 04:26:42;;;;;;;9.57;2.35;;;16.40;99.90;;;;;;4188354;28;20033;-71
2023/09/19 04:28:43;;;;;;;10.48;2.70;;;16.40;99.90;;;;;;4188569;28;20135;-71
2023/09/19 04:30:44;;;;;;;6.70;2.40;;;16.30;99.90;;;;;;4187330;28;22617;-71
2023/09/19 04:32:50;;;;;;;6.30;1.92;;;16.40;99.90;;;;;;4189525;28;20111;-70
2023/09/19 04:34:51;;;;;;;14.13;2.92;;;16.40;99.90;;;;;;4183998;28;20109;-69
2023/09/19 04:36:52;;;;;;;7.43;2.38;;;16.30;99.90;;;;;;4187617;28;20052;-70
2023/09/19 04:38:53;;;;;;;10.43;2.45;;;16.30;99.90;;;;;;4189228;28;20036;-69
2023/09/19 04:40:58;;;;;;;5.25;2.05;;;16.30;99.90;;;;;;4188306;28;20040;-70
2023/09/19 04:42:59;;;;;;;10.02;2.65;;;16.30;99.90;;;;;;4181657;28;20144;-72
2023/09/19 04:45:00;;;;;;;8.27;2.70;;;16.30;99.90;;;;;;4189044;28;20462;-71
2023/09/19 04:47:01;;;;;;;6.85;2.30;;;16.30;99.90;;;;;;4185088;28;20055;-71
2023/09/19 04:49:05;;;;;;;5.22;2.00;;;16.20;99.90;;;;;;4177370;28;20117;-72
2023/09/19 04:51:05;;;;;;;9.60;2.58;;;16.30;99.90;;;;;;4179811;28;20033;-71
2023/09/19 04:53:07;;;;;;;7.57;2.53;;;16.20;99.90;;;;;;4179351;28;20509;-72
2023/09/19 04:55:18;;;;;;;7.85;2.80;;;16.30;99.90;;;;;;4179228;28;20025;-70
2023/09/19 04:57:19;;;;;;;8.10;2.53;;;16.30;99.90;;;;;;4191352;28;20115;-72
2023/09/19 04:59:19;;;;;;;8.82;2.50;;;16.30;99.90;;;;;;4179496;28;20060;-71
2023/09/19 05:01:22;;;;;;;7.05;2.38;;;16.30;99.90;;;;;;4171507;28;20479;-72
2023/09/19 05:03:23;;;;;;;8.75;2.35;;;16.30;99.90;;;;;;4171329;28;20040;-72
2023/09/19 05:05:25;;;;;;;6.35;2.25;;;16.30;99.90;;;;;;4162482;28;20041;-72
2023/09/19 05:07:26;;;;;;;9.70;2.50;;;16.30;99.90;;;;;;4183910;28;20489;-72
2023/09/19 05:09:26;;;;;;;9.48;2.25;;;16.30;99.90;;;;;;4181567;28;20081;-73
2023/09/19 05:11:30;;;;;;;5.47;1.80;;;16.30;99.90;;;;;;4178264;28;20405;-68
2023/09/19 05:13:31;;;;;;;5.97;2.00;;;16.30;99.90;;;;;;4180860;28;20036;-71
2023/09/19 05:15:31;;;;;;;8.48;2.40;;;16.30;99.90;;;;;;4182753;28;20052;-72
2023/09/19 05:17:32;;;;;;;6.65;2.28;;;16.20;99.90;;;;;;4189003;28;20035;-71
2023/09/19 05:19:33;;;;;;;11.27;2.55;;;16.30;99.90;;;;;;4179319;28;20033;-71
2023/09/19 05:21:34;;;;;;;9.98;2.20;;;16.20;99.90;;;;;;4178589;28;20520;-70
2023/09/19 05:23:36;;;;;;;6.22;2.50;;;16.20;99.90;;;;;;4178781;28;20048;-72
2023/09/19 05:25:39;;;;;;;11.75;2.72;;;16.30;99.90;;;;;;4179782;28;20399;-71
2023/09/19 05:27:40;;;;;;;7.30;2.30;;;16.30;99.90;;;;;;4178354;28;20127;-72
2023/09/19 05:29:42;;;;;;;5.93;2.13;;;16.30;99.90;;;;;;4180414;28;20065;-71
2023/09/19 05:31:43;;;;;;;11.73;2.50;;;16.30;99.90;;;;;;4176314;28;20047;-71
2023/09/19 05:33:43;;;;;;;10.55;2.88;;;16.30;99.90;;;;;;4181388;28;20036;-70
2023/09/19 05:35:46;;;;;;;7.47;2.50;;;16.30;99.90;;;;;;4180528;28;20409;-68
2023/09/19 05:37:51;;;;;;;8.10;2.85;;;16.40;99.90;;;;;;4183205;28;20029;-72
2023/09/19 05:39:53;;;;;;;10.85;2.78;;;16.50;99.90;;;;;;4179953;28;20071;-69
2023/09/19 05:41:53;;;;;;;8.57;2.40;;;16.40;99.90;;;;;;4181899;28;20027;-64
2023/09/19 05:43:54;;;;;;;7.97;2.45;;;16.40;99.90;;;;;;4184617;28;20489;-66
2023/09/19 05:45:56;;;;;;;9.98;2.35;;;16.50;99.90;;;;;;4184932;28;20024;-65
2023/09/19 05:48:11;;;;;;;16.88;3.22;;;16.40;99.90;;;;;;4179190;28;20044;-65
2023/09/19 05:50:12;;;;;;;8.85;2.33;;;16.40;99.90;;;;;;4176451;28;20107;-65
2023/09/19 05:52:13;;;;;;;8.80;2.50;;;16.40;99.90;;;;;;4174371;28;20033;-65
2023/09/19 05:54:13;;;;;;;7.20;2.55;;;16.40;99.90;;;;;;4175966;28;20453;-65
2023/09/19 05:56:14;;;;;;;8.35;2.53;;;16.50;99.90;;;;;;4188263;28;20095;-65
2023/09/19 05:58:17;;;;;;;8.95;2.60;;;16.50;99.90;;;;;;4177303;28;20037;-64
2023/09/19 06:00:22;;;;;;;18.27;3.47;;;16.50;99.90;;;;;;4180750;28;20024;-65
2023/09/19 06:02:23;;;;;;;11.18;2.75;;;16.50;99.90;;;;;;4182248;28;20510;-65
2023/09/19 06:04:23;;;;;;;11.13;2.63;;;16.50;99.90;;;;;;4178527;28;20036;-64
2023/09/19 06:06:24;;;;;;;13.55;2.80;;;16.50;99.90;;;;;;4182351;28;20037;-64
2023/09/19 06:08:25;;;;;;;7.15;2.70;;;16.60;99.90;;;;;;4177012;28;20436;-64
2023/09/19 06:10:31;;;;;;;6.32;2.38;;;16.60;99.90;;;;;;4174170;28;20808;-64
2023/09/19 06:12:37;;;;;;;6.00;2.47;;;16.60;99.90;;;;;;4181425;28;20045;-65
2023/09/19 06:14:37;;;;;;;11.20;2.72;;;16.60;99.90;;;;;;4174535;28;20064;-65
2023/09/19 06:16:39;;;;;;;7.47;2.60;;;16.60;99.90;;;;;;4175826;28;20402;-64
2023/09/19 06:18:39;;;;;;;7.55;2.35;;;16.60;99.90;;;;;;4182752;28;20045;-65
2023/09/19 06:20:44;;;;;;;8.52;2.75;;;16.60;99.90;;;;;;4183549;28;20043;-64
2023/09/19 06:22:46;;;;;;;12.02;2.90;;;16.60;99.90;;;;;;4179463;28;20452;-64
2023/09/19 06:24:46;;;;;;;11.75;2.60;;;16.60;99.90;;;;;;4177563;28;20040;-65
2023/09/19 06:26:47;;;;;;;5.53;1.95;;;16.60;99.90;;;;;;4175285;28;20478;-65
2023/09/19 06:28:48;;;;;;;9.27;2.45;;;16.60;99.90;;;;;;4180769;28;23759;-65
2023/09/19 06:30:49;;;;;;;6.57;2.47;;;16.60;99.90;;;;;;4181823;28;20119;-64
2023/09/19 06:32:55;;;;;;;7.28;2.58;;;16.60;99.90;;;;;;4181256;28;20116;-65
2023/09/19 06:34:55;;;;;;;6.70;2.20;;;16.60;99.90;;;;;;4173213;28;20716;-67
2023/09/19 06:36:56;;;;;;;9.50;2.75;;;16.60;99.90;;;;;;4165128;28;20034;-67
2023/09/19 06:38:56;;;;;;;9.18;2.30;;;16.60;99.90;;;;;;4160710;28;20052;-68
2023/09/19 06:40:58;;;;;;;11.00;3.05;;;16.60;99.90;;;;;;4165658;28;20096;-67
2023/09/19 06:43:02;;;;;;;15.17;3.20;;;16.60;99.90;;;;;;4165374;28;20048;-67
2023/09/19 06:45:05;;;;;;;6.78;2.28;;;16.50;99.90;;;;;;4180530;28;20128;-67
2023/09/19 06:47:06;;;;;;;14.93;3.63;;;16.60;99.90;;;;;;4189479;28;20682;-67
2023/09/19 06:49:07;;;;;;;12.02;3.13;;;16.60;99.90;;;;;;4182927;28;20068;-68
2023/09/19 06:51:08;;;;;;;9.48;2.75;;;16.70;99.90;;;;;;4178093;28;20138;-67
2023/09/19 06:53:09;;;;;;;8.30;2.65;;;16.70;99.90;;;;;;4184007;28;20873;-67
2023/09/19 06:55:11;;;;;;;11.18;2.45;;;16.80;99.90;;;;;;4185289;28;20033;-67
2023/09/19 06:57:13;;;;;;;10.23;2.42;;;16.80;99.90;;;;;;4181156;28;20036;-67
2023/09/19 06:59:14;;;;;;;9.25;2.90;;;16.80;99.90;;;;;;4181672;28;20044;-67
2023/09/19 07:01:15;;;;;;;6.07;2.00;;;16.80;99.90;;;;;;4182492;28;20033;-66
2023/09/19 07:03:18;;;;;;;10.07;2.50;;;16.80;99.90;;;;;;4180929;28;20028;-64
2023/09/19 07:05:20;;;;;;;7.80;2.33;;;16.80;99.90;;;;;;4181318;28;20151;-65
2023/09/19 07:07:20;;;;;;;10.18;2.70;;;16.80;99.90;;;;;;4182536;28;20053;-65
2023/09/19 07:09:22;;;;;;;8.60;2.35;;;16.90;99.90;;;;;;4181656;28;20479;-64
2023/09/19 07:11:23;;;;;;;10.13;2.75;;;16.80;99.90;;;;;;4177111;28;20439;-64
2023/09/19 07:13:25;;;;;;;9.70;2.80;;;16.90;99.90;;;;;;4179165;28;20739;-65
2023/09/19 07:15:26;;;;;;;8.45;2.13;;;16.90;99.90;;;;;;4184395;28;20039;-66
2023/09/19 07:17:28;;;;;;;7.82;2.45;;;17.00;99.90;;;;;;4185353;28;20037;-66
2023/09/19 07:19:28;;;;;;;9.32;2.47;;;16.90;99.90;;;;;;4179970;28;20094;-64
2023/09/19 07:21:29;;;;;;;12.85;3.15;;;17.00;99.90;;;;;;4182284;28;20498;-64
2023/09/19 07:23:34;;;;;;;10.13;2.28;;;17.10;99.90;;;;;;4185152;28;20043;-65
2023/09/19 07:25:35;;;;;;;9.95;2.90;;;17.10;99.90;;;;;;4177091;28;20543;-65
2023/09/19 07:27:36;;;;;;;11.77;3.05;;;17.20;99.90;;;;;;4182938;28;20036;-65
2023/09/19 07:29:40;;;;;;;5.82;1.90;;;17.10;99.90;;;;;;4181045;28;20386;-65
2023/09/19 07:31:40;;;;;;;8.35;2.45;;;17.20;99.90;;;;;;4181437;28;20037;-64
2023/09/19 07:33:42;;;;;;;10.70;2.45;;;17.20;99.90;;;;;;4184190;28;20039;-64
2023/09/19 07:35:46;;;;;;;8.30;2.25;;;17.20;99.90;;;;;;4182114;28;20040;-64
2023/09/19 07:37:51;;;;;;;9.20;2.53;;;17.30;99.90;;;;;;4178130;28;20474;-64
2023/09/19 07:39:52;;;;;;;11.20;2.85;;;17.30;99.90;;;;;;4178570;28;20060;-64
2023/09/19 07:41:53;;;;;;;7.82;2.20;;;17.30;99.90;;;;;;4188851;28;20025;-65
2023/09/19 07:43:54;;;;;;;6.57;2.35;;;17.30;99.90;;;;;;4186503;28;20033;-65
2023/09/19 07:45:55;;;;;;;9.68;2.92;;;17.40;99.90;;;;;;4185122;28;20025;-65
2023/09/19 07:47:55;;;;;;;8.35;2.38;;;17.40;99.90;;;;;;4178272;28;20080;-67
2023/09/19 07:49:56;;;;;;;11.52;2.30;;;17.40;99.90;;;;;;4183999;28;20020;-65
2023/09/19 07:51:57;;;;;;;9.38;2.75;;;17.50;99.90;;;;;;4185098;28;20406;-66
2023/09/19 07:53:58;;;;;;;6.53;2.15;;;17.50;99.90;;;;;;4182810;28;20029;-66
2023/09/19 07:56:06;;;;;;;8.70;2.80;;;17.60;99.90;;;;;;4193316;28;20454;-67
2023/09/19 07:58:08;;;;;;;7.00;2.70;;;17.60;99.90;;;;;;4170634;28;20026;-64
2023/09/19 08:00:12;;;;;;;10.15;2.72;;;17.50;99.90;;;;;;4180822;28;20422;-65
2023/09/19 08:02:16;;;;;;;9.85;2.33;;;17.60;99.90;;;;;;4189309;28;20123;-64
2023/09/19 08:04:16;;;;;;;8.70;2.40;;;17.60;99.90;;;;;;4189553;28;20033;-64
2023/09/19 08:06:18;;;;;;;8.05;2.63;;;17.60;99.90;;;;;;4176559;28;20122;-65
2023/09/19 08:08:21;;;;;;;8.75;2.97;;;17.70;99.90;;;;;;4184628;28;20789;-65
2023/09/19 08:10:22;;;;;;;10.60;2.78;;;17.70;99.90;;;;;;4179171;28;20047;-67
2023/09/19 08:12:23;;;;;;;6.90;2.15;;;17.80;99.90;;;;;;4186372;28;20059;-67
2023/09/19 08:14:24;;;;;;;8.27;2.38;;;17.70;99.90;;;;;;4184510;28;20385;-67
2023/09/19 08:16:25;;;;;;;5.33;1.93;;;17.80;99.90;;;;;;4185854;28;20021;-67
2023/09/19 08:18:26;;;;;;;9.13;2.42;;;17.80;99.90;;;;;;4177626;28;20255;-67
2023/09/19 08:20:27;;;;;;;14.25;2.97;;;17.90;99.90;;;;;;4176593;28;20067;-67
2023/09/19 08:22:27;;;;;;;11.52;2.63;;;17.90;99.90;;;;;;4188508;28;20025;-67
2023/09/19 08:24:29;;;;;;;6.20;2.38;;;18.00;99.90;;;;;;4177401;28;20391;-67
2023/09/19 08:26:30;;;;;;;14.05;2.92;;;18.10;99.90;;;;;;4192068;28;20036;-68
2023/09/19 08:28:31;;;;;;;13.23;2.63;;;18.20;99.90;;;;;;4181755;28;20045;-67
2023/09/19 08:30:34;;;;;;;7.65;2.58;;;18.20;99.90;;;;;;4176620;28;20082;-66
2023/09/19 08:32:35;;;;;;;9.60;2.65;;;18.30;99.90;;;;;;4176657;28;20047;-67
2023/09/19 08:34:38;;;;;;;13.00;2.65;;;18.40;99.90;;;;;;4180695;28;20386;-67
2023/09/19 08:36:39;;;;;;;;;;;18.50;99.90;;;;;;4180375;28;20051;-67
2023/09/19 08:38:39;;;;;;;6.78;2.03;;;18.60;99.90;;;;;;4181722;28;20298;-68
2023/09/19 08:40:41;;;;;;;11.57;2.53;;;18.70;99.90;;;;;;4173356;28;20029;-67
2023/09/19 08:42:53;;;;;;;7.28;2.45;;;18.60;99.90;;;;;;4180128;28;20116;-67
2023/09/19 08:44:55;;;;;;;6.72;2.40;;;18.70;99.90;;;;;;4183070;28;20053;-67
2023/09/19 08:47:08;;;;;;;18.20;3.10;;;18.80;99.90;;;;;;4177625;28;20909;-67
2023/09/19 08:49:17;;;;;;;;;;;18.80;99.90;;;;;;4181382;28;20082;-67
2023/09/19 08:51:33;;;;;;;7.32;2.63;;;18.80;99.90;;;;;;4177606;28;20393;-67
2023/09/19 08:53:49;;;;;;;7.07;2.47;;;18.90;99.90;;;;;;4184354;28;20432;-67
2023/09/19 08:55:53;;;;;;;7.90;2.22;;;18.90;99.90;;;;;;4174762;28;20058;-67
2023/09/19 08:58:04;;;;;;;9.90;2.63;;;18.90;99.90;;;;;;4176652;28;20033;-67
2023/09/19 09:00:10;;;;;;;6.10;2.15;;;19.00;99.90;;;;;;4176982;28;20086;-67
2023/09/19 09:02:12;;;;;;;7.78;2.47;;;19.10;99.90;;;;;;4177816;28;20032;-67
2023/09/19 09:04:13;;;;;;;5.53;1.75;;;19.10;99.90;;;;;;4176148;28;20044;-68
2023/09/19 09:06:15;;;;;;;7.97;2.53;;;19.20;99.90;;;;;;4177212;28;20387;-67
2023/09/19 09:08:17;;;;;;;;;;;19.30;99.90;;;;;;4175931;28;20043;-67
2023/09/19 09:10:22;;;;;;;9.38;2.58;;;19.30;99.90;;;;;;4173578;28;20457;-68
2023/09/19 09:12:23;;;;;;;8.98;2.30;;;19.30;99.90;;;;;;4173706;28;20295;-67
2023/09/19 09:14:24;;;;;;;7.93;2.33;;;19.40;99.90;;;;;;4178248;28;20048;-67
2023/09/19 09:16:26;;;;;;;5.95;2.17;;;19.50;99.90;;;;;;4177085;28;20489;-68
2023/09/19 09:18:29;;;;;;;6.75;2.28;;;19.50;99.90;;;;;;4163088;28;20061;-68
2023/09/19 09:20:30;;;;;;;7.95;2.60;;;19.60;99.90;;;;;;4179553;28;20067;-64
2023/09/19 09:22:32;;;;;;;9.32;2.30;;;19.70;99.90;;;;;;4183495;28;20460;-66
2023/09/19 09:24:37;;;;;;;9.95;2.70;;;19.80;99.90;;;;;;4182016;28;20489;-68
2023/09/19 09:26:46;;;;;;;9.25;2.65;;;19.80;99.90;;;;;;4175235;28;20111;-65
2023/09/19 09:28:48;;;;;;;9.00;2.75;;;19.80;99.90;;;;;;4176630;28;20036;-65
2023/09/19 09:30:50;;;;;;;9.43;2.22;;;19.80;99.90;;;;;;4179557;28;20121;-66
2023/09/19 09:33:11;;;;;;;10.95;2.50;;;19.80;99.90;;;;;;4169389;28;20502;-65
2023/09/19 09:35:14;;;;;;;8.18;2.20;;;19.70;99.90;;;;;;4179806;28;20036;-65
2023/09/19 09:37:17;;;;;;;9.93;2.63;;;19.80;99.90;;;;;;4178468;28;20044;-65
2023/09/19 09:39:31;;;;;;;13.23;2.88;;;19.80;99.90;;;;;;4174277;28;20521;-67
2023/09/19 09:41:39;;;;;;;6.95;2.35;;;19.70;99.90;;;;;;4172587;28;20068;-65
2023/09/19 09:43:41;;;;;;;8.45;2.13;;;19.70;99.90;;;;;;4166928;28;20033;-65
2023/09/19 09:45:48;;;;;;;8.38;2.28;;;19.70;99.90;;;;;;4163918;28;20490;-65
2023/09/19 09:47:55;;;;;;;7.97;2.25;;;19.80;99.90;;;;;;4163125;28;20041;-64
2023/09/19 09:50:06;;;;;;;13.05;2.60;;;19.80;99.90;;;;;;4164492;28;20037;-67
2023/09/19 09:52:17;;;;;;;8.13;2.65;;;19.80;99.90;;;;;;4177250;28;20041;-65
2023/09/19 09:54:22;;;;;;;8.55;2.53;;;19.90;99.90;;;;;;4179126;28;20040;-66
2023/09/19 09:56:22;;;;;;;8.63;2.50;;;19.90;99.90;;;;;;4177833;28;20074;-66
2023/09/19 09:58:28;;;;;;;10.60;3.13;;;20.00;99.90;;;;;;4176491;28;20037;-66
2023/09/19 10:00:42;;;;;;;7.95;2.53;;;20.10;99.90;;;;;;4173859;28;20541;-67
2023/09/19 10:02:45;;;;;;;9.70;2.83;;;20.00;99.90;;;;;;4179102;28;20060;-65
2023/09/19 10:04:51;;;;;;;7.80;1.88;;;20.00;99.90;;;;;;4176963;28;20120;-65
2023/09/19 10:06:53;;;;;;;7.75;2.05;;;20.00;99.90;;;;;;4168520;28;20431;-65
2023/09/19 10:09:11;;;;;;;5.53;2.20;;;20.10;99.90;;;;;;4178190;28;20441;-64
2023/09/19 10:11:19;;;;;;;5.68;2.08;;;20.20;99.90;;;;;;4178162;28;20033;-65
2023/09/19 10:13:23;;;;;;;9.32;2.35;;;20.30;99.90;;;;;;4181913;28;20045;-65
2023/09/19 10:15:26;;;;;;;7.35;2.50;;;20.40;99.90;;;;;;4181451;28;22294;-65
2023/09/19 10:17:30;;;;;;;5.78;1.85;;;20.30;99.90;;;;;;4177317;28;20029;-64
2023/09/19 10:19:37;;;;;;;9.30;2.60;;;20.30;99.90;;;;;;4184720;28;20032;-65
2023/09/19 10:21:39;;;;;;;7.10;2.30;;;20.30;99.90;;;;;;4169201;28;20048;-68
2023/09/19 10:23:43;;;;;;;9.18;2.45;;;20.40;99.90;;;;;;4186221;28;20137;-64
2023/09/19 10:25:47;;;;;;;9.68;2.72;;;20.30;99.90;;;;;;4186380;28;20071;-65
2023/09/19 10:27:50;;;;;;;8.90;2.78;;;20.40;99.90;;;;;;4184055;28;20390;-65
2023/09/19 10:29:55;;;;;;;7.07;2.33;;;20.40;99.90;;;;;;4181128;28;20033;-66
2023/09/19 10:32:00;;;;;;;6.00;2.30;;;20.40;99.90;;;;;;4182367;28;20035;-65
2023/09/19 10:34:04;;;;;;;6.38;2.40;;;20.40;99.90;;;;;;4185234;28;20032;-66
2023/09/19 10:36:05;;;;;;;7.88;2.20;;;20.30;99.90;;;;;;4185906;28;20094;-66
2023/09/19 10:38:07;;;;;;;11.68;2.55;;;20.40;99.90;;;;;;4181320;28;20032;-64
2023/09/19 10:40:08;;;;;;;8.57;2.43;;;20.30;99.90;;;;;;4186793;28;20465;-70